Flight Track Log - Related Links

Times and Time Zones

All times are in EDT time to prevent confusion due to time zone crossing. See the GJS3710 flight status page for this flight to view local times or setup timezone preferences in your user account.

Time Position Orientation Groundspeed Altitude Reporting Facility
EDT Latitude Longitude Course Direction KTS MPH feet Rate Location/Type
Wed 12:20:50 AM 42.0167 -87.9667 20° North 176 203 2,400  Level Chicago TRACON
Wed 12:21:44 AM 42.0500 -88.0000 323° Northwest 220 253 4,200 1,529 Climbing Chicago TRACON
Wed 12:22:32 AM 42.1000 -88.0500 323° Northwest 252 290 5,000 444 Climbing Chicago TRACON
Wed 12:23:32 AM 42.1667 -88.0667 350° North 271 312 5,000  Level Chicago TRACON
Wed 12:24:02 AM 42.2017 -88.0661 North 270 311 5,000 1,648 Level Chicago Center
Wed 12:25:03 AM 42.2781 -88.0669 360° North 274 315 7,500 2,508 Climbing Chicago Center
Wed 12:26:00 AM 42.6547 -87.6810 20° North  Level FlightAware Approximate
Wed 12:26:04 AM 42.3575 -88.0625 North 275 316 10,100  Level Chicago Center
Wed 12:27:05 AM 42.4389 -88.0603 North 290 334 12,600 2,311 Climbing Chicago Center
Wed 12:28:06 AM 42.5247 -88.0600 360° North 306 352 14,800 1,672 Climbing Chicago Center
Wed 12:29:07 AM 42.6067 -88.0019 28° Northeast 369 425 16,000 1,279 Climbing Chicago Center
Wed 12:30:08 AM 42.6736 -87.8894 51° Northeast 385 443 17,400 1,770 Climbing Chicago Center
Wed 12:31:09 AM 42.7428 -87.7728 51° Northeast 394 453 19,600 1,918 Climbing Chicago Center
Wed 12:32:10 AM 42.8233 -87.6344 52° Northeast 400 460 21,300 1,636 Climbing Chicago Center
Wed 12:33:10 AM 42.8447 -87.4758 80° East 429 494 22,900 1,488 Climbing Chicago Center
Wed 12:34:11 AM 42.8603 -87.3292 82° East 427 491 24,300 1,180 Climbing Chicago Center
Wed 12:35:12 AM 42.8783 -87.1639 81° East 440 506 25,300 984 Climbing Chicago Center
Wed 12:36:13 AM 42.9125 -86.9972 74° East 455 524 26,300 984 Climbing Chicago Center
Wed 12:37:14 AM 42.9481 -86.8272 74° East 465 535 27,300 1,033 Climbing Chicago Center
Wed 12:38:15 AM 42.9836 -86.6539 74° East 474 545 28,400 984 Climbing Chicago Center
Wed 12:39:16 AM 43.0203 -86.4783 74° East 480 552 29,300 885 Climbing Chicago Center
Wed 12:40:17 AM 43.0564 -86.3006 74° East 485 558 30,200 885 Climbing Chicago Center
Wed 12:41:18 AM 43.0967 -86.1200 73° East 490 564 31,100 934 Climbing Chicago Center
Wed 12:42:19 AM 43.1369 -85.9311 74° East 493 567 32,100 942 Climbing Chicago Center
Wed 12:43:19 AM 43.1828 -85.7378 72° East 507 583 33,000 992 Climbing Chicago Center
Wed 12:44:20 AM 43.2272 -85.5589 71° East 500 575 34,100 984 Climbing Chicago Center
Wed 12:45:21 AM 43.2761 -85.3833 69° East 495 570 35,000 443 Climbing Chicago Center
Wed 12:46:22 AM 43.3256 -85.2039 69° East 500 575 35,000  Level Chicago Center
Wed 12:47:23 AM 43.3522 -85.0150 79° East 503 579 35,000  Level Chicago Center
Wed 12:48:23 AM 43.3492 -84.7881 91° East 490 564 35,000 99 Level Chicago Center
Wed 12:49:24 AM 43.3425 -84.5981 93° East 497 572 35,200 393 Climbing Chicago Center
Wed 12:50:25 AM 43.3353 -84.4047 93° East 505 581 35,800 617 Climbing Chicago Center
Wed 12:51:11 AM 43.3283 -84.2878 95° East 502 578 36,300 736 Climbing Cleveland Center
Wed 12:52:11 AM 43.3200 -84.0817 93° East 502 578 37,100 850 Climbing Cleveland Center
Wed 12:53:11 AM 43.3117 -83.8731 93° East 502 578 38,000 850 Climbing Cleveland Center
Wed 12:54:11 AM 43.3042 -83.6872 93° East 497 572 38,800 500 Climbing Cleveland Center
Wed 12:55:11 AM 43.2944 -83.4983 94° East 497 572 39,000 100 Climbing Cleveland Center
Wed 12:56:11 AM 43.2867 -83.3069 93° East 497 572 39,000  Level Cleveland Center
Wed 12:57:11 AM 43.2764 -83.1153 94° East 497 572 39,000  Level Cleveland Center
Wed 12:58:11 AM 43.2678 -82.9325 94° East 497 572 39,000  Level Cleveland Center
Wed 12:59:11 AM 43.2569 -82.7411 94° East 497 572 39,000  Level Cleveland Center
Wed 01:00:11 AM 43.2331 -82.5550 100° East 497 572 39,000  Level Cleveland Center
Wed 01:02:00 AM 43.2291 -82.2747 91° East  Level FlightAware Approximate
Wed 01:08:23 AM 43.0325 -81.0233 92° East 457 526 39,000  Level Cleveland Center
Wed 01:09:00 AM 43.2077 -81.1953 91° East  Level FlightAware Approximate
Wed 01:09:23 AM 43.0267 -80.8303 92° East 493 567 39,000  Level Cleveland Center
Wed 01:10:00 AM 43.2038 -81.0412 92° East  Level FlightAware Approximate
Wed 01:10:23 AM 43.0208 -80.6400 92° East 503 579 39,000  Level Cleveland Center
Wed 01:11:00 AM 43.1997 -80.8871 92° East  Level FlightAware Approximate
Wed 01:11:23 AM 43.0125 -80.4469 93° East 503 579 39,000  Level Cleveland Center
Wed 01:12:00 AM 43.1954 -80.7330 92° East  Level FlightAware Approximate
Wed 01:12:23 AM 43.0058 -80.2539 93° East 503 579 39,000  Level Cleveland Center
Wed 01:13:23 AM 42.9989 -80.0581 93° East 508 585 39,000  Level Cleveland Center
Wed 01:14:23 AM 42.9917 -79.8736 93° East 495 570 39,000  Level Cleveland Center
Wed 01:15:23 AM 42.9797 -79.6864 95° East 495 570 39,000  Level Cleveland Center
Wed 01:16:23 AM 42.9761 -79.5050 91° East 490 564 39,000  Level Cleveland Center
Wed 01:17:23 AM 42.9661 -79.3236 94° East 485 558 39,000  Level Cleveland Center
Wed 01:18:23 AM 42.9578 -79.1392 93° East 480 552 39,000  Level Cleveland Center
Wed 01:19:23 AM 42.9469 -78.9553 95° East 480 552 39,000  Level Cleveland Center
Wed 01:20:23 AM 42.9358 -78.7711 95° East 480 552 39,000  Level Cleveland Center
Wed 01:21:23 AM 42.9286 -78.5842 93° East 480 552 39,000  Level Cleveland Center
Wed 01:22:23 AM 42.9250 -78.3942 91° East 485 558 39,000  Level Cleveland Center
Wed 01:23:24 AM 42.9214 -78.2072 91° East 490 564 39,000  Level Cleveland Center
Wed 01:24:23 AM 42.9172 -78.0147 92° East 495 570 39,000 -303 Level Cleveland Center
Wed 01:25:23 AM 42.9131 -77.8250 92° East 495 570 38,400 -850 Descending Cleveland Center
Wed 01:26:23 AM 42.9103 -77.6322 91° East 495 570 37,300 -1,050 Descending Cleveland Center
Wed 01:27:23 AM 42.9053 -77.4397 92° East 495 570 36,300 -900 Descending Cleveland Center
Wed 01:28:23 AM 42.9000 -77.2528 92° East 495 570 35,500 -734 Descending Cleveland Center
Wed 01:30:31 AM 42.8872 -76.8700 92° East 489 563 34,000 -798 Descending Boston Center
Wed 01:31:31 AM 42.8800 -76.6794 93° East 495 570 33,000 -1,250 Descending Boston Center
Wed 01:32:31 AM 42.8731 -76.4722 93° East 501 577 31,500 -1,700 Descending Boston Center
Wed 01:33:31 AM 42.8669 -76.2875 93° East 496 571 29,600 -1,950 Descending Boston Center
Wed 01:34:31 AM 42.8583 -76.1000 94° East 490 564 27,600 -2,000 Descending Boston Center
Wed 01:35:31 AM 42.8556 -75.9242 91° East 482 555 25,600 -2,000 Descending Boston Center
Wed 01:36:31 AM 42.8461 -75.7564 94° East 454 522 23,600 -1,800 Descending Boston Center
Wed 01:37:31 AM 42.8400 -75.6003 93° East 434 499 22,000 -1,600 Descending Boston Center
Wed 01:38:31 AM 42.8333 -75.4611 94° East 410 472 20,400 -1,600 Descending Boston Center
Wed 01:39:31 AM 42.8269 -75.3081 93° East 410 472 18,800 -1,650 Descending Boston Center
Wed 01:40:31 AM 42.8181 -75.1575 95° East 410 472 17,100 -1,650 Descending Boston Center
Wed 01:41:31 AM 42.8133 -75.0072 92° East 410 472 15,500 -1,600 Descending Boston Center
Wed 01:42:31 AM 42.8039 -74.8625 95° East 399 459 13,900 -1,860 Descending Boston Center
Wed 01:43:11 AM 42.7981 -74.7492 94° East 373 429 12,400 -1,528 Descending Boston Center
Wed 01:44:17 AM 42.7925 -74.6017 93° East 365 420 11,200 -614 Descending Boston Center
Wed 01:45:18 AM 42.7825 -74.4628 96° East 365 420 11,100 -694 Descending Boston Center
Wed 01:46:18 AM 42.7931 -74.3442 83° East 312 359 9,800 -1,636 Descending Boston Center
Wed 01:47:19 AM 42.8114 -74.2317 77° East 301 346 7,800 -2,016 Descending Boston Center
Wed 01:48:20 AM 42.8300 -74.1133 78° East 299 344 5,700 -2,033 Descending Boston Center
Wed 01:49:20 AM 42.8481 -74.0089 77° East 285 328 3,700 -1,587 Descending Boston Center
Wed 01:50:21 AM 42.8639 -73.9158 77° East 238 274 2,500 -1,041 Descending Boston Center
Wed 01:51:21 AM 42.8544 -73.8392 100° East 199 229 1,600 -545 Descending Boston Center
Wed 01:52:22 AM 42.8153 -73.8100 151° Southeast 154 177 1,400 -443 Descending Boston Center
Wed 01:53:23 AM 42.7756 -73.8064 176° South 128 147 700 -689 Descending Boston Center

Login

Don't have an account? Register now (free) for customized features, flight alerts, and more!